Latest Weather Observations for Stenhouse Bay

IDS60801

Issued at 10:42 pm CDT Friday 15 November 2019 (issued every 10 minutes, with the page automatically refreshed every 10 minutes)

About weather observations | Map of weather stations | Latest weather observations for SA | Other Formats
Station Details ID: 022049 Name: STENHOUSE BAY Lat: -35.28 Lon: 136.94 Height: 42.0 m
Data from the previous 72 hours. | See also: Recent months at Stenhouse Bay
Date/Time
CDT
Temp
°C
App
Temp
°C
Dew
Point
°C
Rel
Hum
%
Delta-T
°C
Wind Press
QNH
hPa
Press
MSL
hPa
Rain since
9am
mm
Dir  Spd
km/h
Gust
km/h
Spd
kts
Gust
kts
15/10:30pm 13.4 8.0 6.5 63 3.3 S 24 32 13 17 1021.4 1021.3 0.0
15/10:00pm 13.5 8.0 6.1 61 3.5 S 24 30 13 16 1021.3 1021.2 0.0
15/09:30pm 13.8 7.8 6.9 63 3.3 S 28 37 15 20 1020.9 1020.8 0.0
15/09:00pm 14.0 9.4 8.2 68 2.9 S 22 30 12 16 1020.5 1020.4 0.0
15/08:30pm 14.1 9.1 8.1 67 3.0 SSW 24 32 13 17 1020.0 1019.9 0.0
15/08:00pm 14.1 10.1 9.1 72 2.5 SW 20 32 11 17 1019.9 1019.8 0.0
15/07:30pm 14.4 9.7 9.4 72 2.6 SW 24 32 13 17 1019.7 1019.6 0.0
15/07:00pm 14.6 10.9 10.0 74 2.4 SW 20 28 11 15 1019.2 1019.1 0.0
15/06:30pm 14.9 10.7 9.7 71 2.7 SW 22 30 12 16 1018.9 1018.8 0.0
15/06:00pm 15.7 11.7 10.5 71 2.7 SW 22 28 12 15 1018.8 1018.7 0.0
15/05:30pm 16.1 10.9 10.2 68 3.1 SW 28 33 15 18 1018.7 1018.6 0.0
15/05:00pm 16.0 10.6 9.4 65 3.4 SW 28 37 15 20 1018.4 1018.3 0.0
15/04:30pm 17.4 12.8 9.6 60 4.1 SW 24 32 13 17 1018.1 1018.0 0.0
15/04:00pm 17.1 12.4 9.3 60 4.1 SW 24 33 13 18 1018.2 1018.1 0.0
15/03:30pm 17.8 13.5 9.2 57 4.5 SW 22 35 12 19 1018.2 1018.1 0.0
15/03:00pm 18.3 14.3 9.1 55 4.8 SW 20 30 11 16 1018.4 1018.3 0.0
15/02:30pm 16.9 12.6 9.3 61 3.9 SW 22 30 12 16 1018.4 1018.3 0.0
15/02:00pm 16.7 12.3 8.9 60 4.0 SW 22 30 12 16 1018.3 1018.2 0.0
15/01:30pm 15.6 11.1 8.4 62 3.6 SW 22 33 12 18 1018.2 1018.1 0.0
15/01:00pm 15.4 10.7 7.9 61 3.8 SW 22 32 12 17 1018.1 1018.0 0.0
15/12:30pm 16.0 11.9 8.0 59 4.0 SW 19 26 10 14 1018.0 1017.9 0.0
15/12:00pm 14.8 9.8 8.1 64 3.4 SW 24 32 13 17 1018.2 1018.1 0.0
15/11:30am 15.1 11.1 8.3 64 3.4 SW 19 26 10 14 1018.1 1018.0 0.0
15/11:00am 15.1 10.7 7.6 61 3.7 SW 20 30 11 16 1017.9 1017.8 0.0
15/10:30am 15.2 10.1 7.7 61 3.7 WSW 24 32 13 17 1017.9 1017.8 0.0
15/10:00am 15.0 10.2 7.3 60 3.8 WSW 22 32 12 17 1017.8 1017.7 0.0
15/09:30am 15.0 10.0 6.6 57 4.1 SW 22 39 12 21 1017.7 1017.6 0.0
15/09:00am 14.9 9.6 6.7 58 4.0 SW 24 33 13 18 1017.5 1017.4 0.0
15/08:30am 14.5 10.1 7.5 63 3.5 WSW 20 32 11 17 1017.1 1017.0 0.0
15/08:00am 14.3 9.8 7.1 62 3.5 WSW 20 28 11 15 1016.8 1016.7 0.0
15/07:30am 14.0 8.6 6.4 60 3.7 SW 24 35 13 19 1016.5 1016.4 0.0
15/07:00am 13.8 9.9 7.1 64 3.3 WSW 17 24 9 13 1016.1 1016.0 0.0
15/06:30am 13.6 9.3 6.9 64 3.2 WSW 19 24 10 13 1015.9 1015.8 0.0
15/06:00am 13.3 8.2 6.2 62 3.4 WSW 22 35 12 19 1015.9 1015.8 0.0
15/05:30am 13.6 8.4 7.4 66 3.0 SW 24 33 13 18 1015.7 1015.6 0.0
15/05:00am 13.5 7.7 6.1 61 3.5 SW 26 39 14 21 1015.6 1015.5 0.0
15/04:30am 13.8 8.3 7.6 66 3.1 SW 26 35 14 19 1015.4 1015.3 0.0
15/04:00am 13.8 8.6 7.3 65 3.2 SW 24 33 13 18 1015.4 1015.3 0.0
15/03:30am 13.9 9.0 7.0 63 3.4 SW 22 32 12 17 1015.5 1015.4 0.0
15/03:00am 13.8 8.5 6.9 63 3.3 SW 24 33 13 18 1015.6 1015.5 0.0
15/02:30am 13.9 9.0 6.7 62 3.5 SW 22 32 12 17 1015.7 1015.6 0.0
15/02:00am 13.9 9.4 7.0 63 3.4 SW 20 30 11 16 1016.2 1016.1 0.0
15/01:30am 14.0 9.0 6.4 60 3.7 SW 22 32 12 17 1016.7 1016.6 0.0
15/01:00am 13.9 9.5 6.5 61 3.6 WSW 19 28 10 15 1016.9 1016.8 0.0
15/12:30am 14.0 9.0 6.4 60 3.7 SW 22 32 12 17 1017.2 1017.1 0.0
15/12:00am 14.0 9.0 6.4 60 3.6 SW 22 32 12 17 1017.4 1017.3 0.0
 
Date/Time
CDT
Temp
°C
App
Temp
°C
Dew
Point
°C
Rel
Hum
%
Delta-T
°C
Wind Press
QNH
hPa
Press
MSL
hPa
Rain since
9am
mm
Dir  Spd
km/h
Gust
km/h
Spd
kts
Gust
kts
14/11:30pm 14.1 9.0 7.6 65 3.2 SW 24 32 13 17 1017.5 1017.4 0.0
14/11:00pm 14.1 10.1 8.3 68 2.9 WSW 19 26 10 14 1017.7 1017.6 0.0
14/10:30pm 14.2 8.8 7.9 66 3.1 WSW 26 35 14 19 1018.0 1017.9 0.0
14/10:00pm 14.3 10.1 7.4 63 3.4 SW 19 32 10 17 1018.2 1018.1 0.0
14/09:30pm 14.4 9.6 7.5 63 3.4 WSW 22 32 12 17 1018.1 1018.0 0.0
14/09:00pm 14.5 9.8 7.8 64 3.3 WSW 22 30 12 16 1017.9 1017.8 0.0
14/08:30pm 14.4 9.1 7.0 61 3.6 WSW 24 35 13 19 1017.9 1017.8 0.0
14/08:00pm 14.6 10.2 9.0 69 2.9 SW 22 30 12 16 1017.8 1017.7 0.0
14/07:30pm 14.6 9.3 8.3 66 3.2 SW 26 35 14 19 1017.9 1017.8 0.0
14/07:00pm 14.9 10.0 8.6 66 3.2 WSW 24 33 13 18 1017.8 1017.7 0.0
14/06:30pm 15.1 9.4 8.3 64 3.4 WSW 28 39 15 21 1017.8 1017.7 0.0
14/06:00pm 15.8 10.9 8.5 62 3.7 WSW 24 35 13 19 1017.9 1017.8 0.0
14/05:30pm 16.1 11.3 8.8 62 3.7 WSW 24 32 13 17 1018.1 1018.0 0.0
14/05:00pm 16.5 11.0 7.4 55 4.6 WSW 26 37 14 20 1018.1 1018.0 0.0
14/04:30pm 17.2 12.3 8.4 56 4.5 WSW 24 39 13 21 1018.2 1018.1 0.0
14/04:00pm 17.8 12.9 8.4 54 4.8 SW 24 32 13 17 1018.3 1018.2 0.0
14/03:30pm 18.1 13.2 8.4 53 5.0 WSW 24 37 13 20 1018.4 1018.3 0.0
14/03:00pm 19.1 13.1 6.9 45 6.1 W 28 46 15 25 1018.7 1018.6 0.0
14/02:30pm 17.8 12.5 8.4 54 4.8 WSW 26 39 14 21 1019.1 1019.0 0.0
14/02:00pm 17.9 13.7 7.6 51 5.2 WSW 19 32 10 17 1019.2 1019.1 0.0
14/01:30pm 17.4 13.0 8.8 57 4.4 WSW 22 30 12 16 1019.5 1019.4 0.0
14/01:00pm 18.4 13.3 7.8 50 5.4 WSW 24 35 13 19 1019.6 1019.5 0.0
14/12:30pm 18.5 13.7 7.3 48 5.6 WSW 22 39 12 21 1019.9 1019.8 0.0
14/12:00pm 17.5 13.4 8.6 56 4.6 WSW 20 32 11 17 1020.2 1020.1 0.0
14/11:30am 15.9 11.2 9.1 64 3.5 WSW 24 37 13 20 1020.8 1020.7 0.0
14/11:00am 17.1 13.7 9.0 59 4.2 WSW 17 26 9 14 1020.9 1020.8 0.0
14/10:30am 15.6 11.1 6.9 56 4.3 W 20 28 11 15 1021.0 1020.9 0.0
14/10:00am 15.3 10.8 7.1 58 4.0 WSW 20 28 11 15 1021.0 1020.9 0.0
14/09:30am 14.8 10.3 7.1 60 3.8 W 20 30 11 16 1021.1 1021.0 0.0
14/09:00am 14.3 9.8 6.9 61 3.6 WSW 20 26 11 14 1020.9 1020.8 0.2
14/08:30am 14.0 9.7 6.8 62 3.5 WSW 19 28 10 15 1020.9 1020.8 0.2
14/08:00am 13.9 9.8 7.9 67 3.0 WSW 19 28 10 15 1020.5 1020.4 0.2
14/07:30am 13.6 10.2 7.6 67 2.9 WSW 15 24 8 13 1020.2 1020.1 0.2
14/07:00am 13.5 9.3 7.5 67 2.9 WSW 19 26 10 14 1020.1 1020.0 0.2
14/06:30am 13.4 8.5 7.0 65 3.1 WSW 22 35 12 19 1019.9 1019.8 0.2
14/06:00am 12.7 9.3 7.8 72 2.4 WSW 15 24 8 13 1019.8 1019.7 0.2
14/05:30am 12.8 8.0 8.7 76 2.0 SW 24 37 13 20 1019.7 1019.6 0.2
14/05:00am 12.2 8.2 9.2 82 1.5 WSW 20 30 11 16 1019.8 1019.7 0.2
14/04:30am 12.8 9.8 9.3 79 1.8 WSW 15 28 8 15 1019.8 1019.7 0.2
14/04:00am 12.4 9.2 9.8 84 1.3 SW 17 28 9 15 1019.9 1019.8 0.2
14/03:30am 11.8 8.6 10.0 89 0.9 WSW 17 30 9 16 1020.1 1020.0 0.0
14/03:00am 11.7 9.1 9.4 86 1.2 W 13 20 7 11 1020.4 1020.3 0.0
14/02:30am 12.2 8.5 10.1 87 1.1 WSW 20 35 11 19 1020.9 1020.8 0.0
14/02:00am 13.4 10.1 9.5 77 2.0 WSW 17 30 9 16 1021.2 1021.1 0.0
14/01:30am 13.2 10.3 8.3 72 2.4 W 13 20 7 11 1021.5 1021.4 0.0
14/01:00am 13.4 9.7 7.8 69 2.8 W 17 24 9 13 1021.7 1021.6 0.0
14/12:30am 13.6 9.8 7.6 67 2.9 WSW 17 26 9 14 1022.0 1021.9 0.0
14/12:00am 13.6 10.2 7.8 68 2.9 WSW 15 24 8 13 1022.1 1022.0 0.0
 
Date/Time
CDT
Temp
°C
App
Temp
°C
Dew
Point
°C
Rel
Hum
%
Delta-T
°C
Wind Press
QNH
hPa
Press
MSL
hPa
Rain since
9am
mm
Dir  Spd
km/h
Gust
km/h
Spd
kts
Gust
kts
13/11:30pm 13.8 10.3 7.1 64 3.3 WSW 15 24 8 13 1022.3 1022.2 0.0
13/11:00pm 13.8 9.3 7.1 64 3.3 SW 20 30 11 16 1022.5 1022.4 0.0
13/10:30pm 13.7 9.2 6.8 63 3.3 WSW 20 28 11 15 1022.8 1022.7 0.0
13/10:00pm 13.7 9.2 6.8 63 3.3 SW 20 32 11 17 1022.8 1022.7 0.0
13/09:30pm 13.9 9.5 7.4 65 3.2 SW 20 28 11 15 1022.7 1022.6 0.0
13/09:00pm 13.8 9.5 7.1 64 3.3 WSW 19 26 10 14 1022.6 1022.5 0.0
13/08:30pm 13.8 9.5 6.9 63 3.3 WSW 19 28 10 15 1022.3 1022.2 0.0
13/08:00pm 14.0 9.7 6.8 62 3.5 WSW 19 30 10 16 1022.3 1022.2 0.0
13/07:30pm 14.2 9.5 7.7 65 3.2 SW 22 32 12 17 1022.2 1022.1 0.0
13/07:00pm 14.4 9.9 8.6 68 2.9 SW 22 32 12 17 1022.1 1022.0 0.0
13/06:30pm 14.8 10.7 8.5 66 3.2 SW 20 30 11 16 1022.1 1022.0 0.0
13/06:00pm 16.0 11.8 8.2 60 3.9 SW 20 26 11 14 1022.0 1021.9 0.0
13/05:30pm 16.6 12.0 8.3 58 4.2 SW 22 33 12 18 1022.2 1022.1 0.0
13/05:00pm 16.1 11.3 8.8 62 3.7 SW 24 33 13 18 1022.4 1022.3 0.0
13/04:30pm 17.4 12.9 8.5 56 4.6 SW 22 30 12 16 1022.5 1022.4 0.0
13/04:00pm 17.9 13.8 7.9 52 5.1 SW 19 28 10 15 1022.2 1022.1 0.0
13/03:30pm 17.5 12.9 8.1 54 4.8 SW 22 28 12 15 1022.7 1022.6 0.0
13/03:00pm 17.9 13.4 8.5 54 4.8 SW 22 28 12 15 1023.1 1023.0 0.0
13/02:30pm 18.0 13.8 8.3 53 5.0 SW 20 28 11 15 1023.5 1023.4 0.0
13/02:00pm 17.9 12.9 8.2 53 5.0 SW 24 33 13 18 1023.7 1023.6 0.0
13/01:30pm 17.7 12.4 8.6 55 4.7 SW 26 35 14 19 1023.7 1023.6 0.0
13/01:00pm 16.9 12.0 8.3 57 4.4 SW 24 32 13 17 1023.6 1023.5 0.0
13/12:30pm 17.2 12.5 7.8 54 4.7 SW 22 32 12 17 1023.5 1023.4 0.0
13/12:00pm 17.9 13.3 8.2 53 5.0 SW 22 33 12 18 1023.6 1023.5 0.0
13/11:30am 16.5 12.2 8.0 57 4.3 SW 20 30 11 16 1023.5 1023.4 0.0
13/11:00am 17.4 13.1 7.7 53 4.9 SW 20 28 11 15 1023.6 1023.5 0.0
13/10:30am 15.5 10.2 7.0 57 4.2 SW 24 32 13 17 1023.9 1023.8 0.0
13/10:00am 16.0 11.6 7.5 57 4.2 SW 20 30 11 16 1023.7 1023.6 0.0
13/09:30am 15.6 10.7 7.1 57 4.2 SW 22 28 12 15 1023.7 1023.6 0.0
13/09:00am 15.3 10.8 7.1 58 4.0 SW 20 30 11 16 1023.7 1023.6 0.0
13/08:30am 15.3 11.0 7.8 61 3.7 SW 20 28 11 15 1023.4 1023.3 0.0
13/08:00am 14.5 9.3 7.3 62 3.5 SW 24 33 13 18 1023.4 1023.3 0.0
13/07:30am 13.8 8.8 8.2 69 2.8 SW 24 32 13 17 1023.0 1022.9 0.0
13/07:00am 13.2 8.9 7.9 70 2.6 SW 20 30 11 16 1022.6 1022.5 0.0
13/06:30am 13.0 7.7 7.0 67 2.9 SW 24 33 13 18 1022.3 1022.2 0.0
13/06:00am 12.8 7.9 6.8 67 2.9 SW 22 30 12 16 1021.9 1021.8 0.0
13/05:30am 12.8 7.9 6.8 67 2.9 SW 22 32 12 17 1021.6 1021.5 0.0
13/05:00am 13.0 7.7 6.8 66 3.0 SW 24 35 13 19 1021.5 1021.4 0.0
13/04:30am 12.8 8.5 7.7 71 2.5 SW 20 32 11 17 1021.7 1021.6 0.0
13/04:00am 12.4 7.8 8.1 75 2.1 SW 22 30 12 16 1021.9 1021.8 0.0
13/03:30am 12.3 8.2 8.8 79 1.7 SSW 20 32 11 17 1022.3 1022.2 0.0
13/03:01am 13.4 7.7 8.5 72 2.5 SW 28 48 15 26 1022.3 1022.2 0.0
13/03:00am 13.3 7.5 8.0 70 2.6 SW 28 43 15 23 1022.2 1022.1 0.0
13/02:30am 12.9 7.6 8.4 74 2.2 SW 26 35 14 19 1022.6 1022.5 0.0
13/02:00am 12.6 8.1 8.7 77 2.0 SSW 22 33 12 18 1022.7 1022.6 0.0
13/01:30am 13.2 7.4 8.1 71 2.5 SW 28 37 15 20 1023.1 1023.0 0.0
13/01:00am 12.5 8.1 8.8 78 1.9 SW 22 32 12 17 1023.3 1023.2 0.0
13/12:30am 11.6 5.6 8.8 83 1.4 SW 30 44 16 24 1023.5 1023.4 0.0
13/12:21am 12.3 7.0 9.7 84 1.3 SW 28 48 15 26 1023.5 1023.4 0.0
13/12:00am 13.1 7.7 8.2 72 2.4 SW 26 35 14 19 1023.5 1023.4 0.0
 
Date/Time
CDT
Temp
°C
App
Temp
°C
Dew
Point
°C
Rel
Hum
%
Delta-T
°C
Wind Press
QNH
hPa
Press
MSL
hPa
Rain since
9am
mm
Dir  Spd
km/h
Gust
km/h
Spd
kts
Gust
kts
12/11:30pm 13.4 8.8 8.0 70 2.7 SW 22 33 12 18 1023.5 1023.4 0.0
12/11:00pm 13.0 8.8 8.3 73 2.3 SW 20 24 11 13 1023.5 1023.4 0.0

Other formats

Comma delimited format used in spreadsheet applications
http://www.bom.gov.au/fwo/IDS60801/IDS60801.95806.axf

JavaScript Object Notation format (JSON) in row-major order
http://www.bom.gov.au/fwo/IDS60801/IDS60801.95806.json

Data quality

Most of these data are generated automatically and are frequently updated. Quality checks on data are not normally performed. It is possible for incorrect values to appear. Refer to information at About Latest Weather Observations and please check the disclaimer before using these data.